createdAt,value
2023-04-25T00:00:10.992Z,31.74
2023-04-25T00:01:11.050Z,31.73
2023-04-25T00:02:11.197Z,31.72
2023-04-25T00:03:11.234Z,31.71
2023-04-25T00:04:11.365Z,31.71
2023-04-25T00:05:11.292Z,31.70
2023-04-25T00:06:11.265Z,31.71
2023-04-25T00:07:11.347Z,31.74
2023-04-25T00:08:11.400Z,31.74
2023-04-25T00:09:11.474Z,31.73
2023-04-25T00:10:11.543Z,31.73
2023-04-25T00:11:11.572Z,31.71
2023-04-25T00:12:11.610Z,31.74
2023-04-25T00:13:11.681Z,31.77
2023-04-25T00:14:11.756Z,31.78
2023-04-25T00:15:11.851Z,31.77
2023-04-25T00:16:11.937Z,31.78
2023-04-25T00:17:11.933Z,31.79
2023-04-25T00:18:11.955Z,31.77
2023-04-25T00:19:12.030Z,31.76
2023-04-25T00:20:12.111Z,31.76
2023-04-25T00:21:12.178Z,31.78
2023-04-25T00:22:12.220Z,31.81
2023-04-25T00:23:12.272Z,31.80
2023-04-25T00:24:12.407Z,31.81
2023-04-25T00:25:12.442Z,31.82
2023-04-25T00:26:12.475Z,31.81
2023-04-25T00:27:12.536Z,31.80
2023-04-25T00:28:12.596Z,31.80
2023-04-25T00:29:12.655Z,31.79
2023-04-25T00:30:12.705Z,31.81
2023-04-25T00:31:12.814Z,31.82
2023-04-25T00:32:12.841Z,31.80
2023-04-25T00:33:13.004Z,31.79
2023-04-25T00:34:13.005Z,31.79
2023-04-25T00:35:13.038Z,31.79
2023-04-25T00:36:13.102Z,31.79
2023-04-25T00:37:13.198Z,31.82
2023-04-25T00:38:13.258Z,31.80
2023-04-25T00:39:13.303Z,31.82
2023-04-25T00:40:13.353Z,31.83
2023-04-25T00:41:13.417Z,31.82
2023-04-25T00:42:13.488Z,31.81
2023-04-25T00:43:13.568Z,31.79
2023-04-25T00:44:13.658Z,31.78
2023-04-25T00:45:13.683Z,31.77
2023-04-25T00:46:13.811Z,31.75
2023-04-25T00:47:13.789Z,31.77
2023-04-25T00:48:13.890Z,31.79
2023-04-25T00:49:13.972Z,31.79
2023-04-25T00:50:14.000Z,31.78
2023-04-25T00:51:14.058Z,31.77
2023-04-25T00:52:14.135Z,31.77
2023-04-25T00:53:14.201Z,31.78
2023-04-25T00:54:14.263Z,31.78
2023-04-25T00:55:14.316Z,31.80
2023-04-25T00:56:14.374Z,31.81
2023-04-25T00:57:14.420Z,31.80
2023-04-25T00:58:14.486Z,31.83
2023-04-25T00:59:14.579Z,31.82
2023-04-25T01:00:14.620Z,31.82
2023-04-25T01:01:14.676Z,31.84
2023-04-25T01:02:14.857Z,31.84
2023-04-25T01:03:14.894Z,31.86
2023-04-25T01:04:15.083Z,31.83
2023-04-25T01:05:14.915Z,31.86
2023-04-25T01:06:14.977Z,31.84
2023-04-25T01:07:15.041Z,31.82
2023-04-25T01:08:15.103Z,31.86
2023-04-25T01:09:15.156Z,31.85
2023-04-25T01:10:15.215Z,31.84
2023-04-25T01:11:15.299Z,31.85
2023-04-25T01:12:15.336Z,31.88
2023-04-25T01:13:15.405Z,31.91
2023-04-25T01:14:15.470Z,31.91
2023-04-25T01:15:15.533Z,31.92
2023-04-25T01:16:15.628Z,31.97
2023-04-25T01:17:15.664Z,31.95
2023-04-25T01:18:15.713Z,31.95
2023-04-25T01:19:15.776Z,31.95
2023-04-25T01:20:15.840Z,31.94
2023-04-25T01:21:15.920Z,31.93
2023-04-25T01:22:15.920Z,31.91
2023-04-25T01:23:16.024Z,31.91
2023-04-25T01:24:16.091Z,31.92
2023-04-25T01:25:16.117Z,31.94
2023-04-25T01:26:16.191Z,31.93
2023-04-25T01:27:16.253Z,31.95
2023-04-25T01:28:16.280Z,31.99
2023-04-25T01:29:16.340Z,31.98
2023-04-25T01:30:16.443Z,32.02
2023-04-25T01:31:16.502Z,32.01
2023-04-25T01:32:16.596Z,31.97
2023-04-25T01:33:16.610Z,31.98
2023-04-25T01:34:16.676Z,31.97
2023-04-25T01:35:16.731Z,31.94
2023-04-25T01:36:16.768Z,31.92
2023-04-25T01:37:16.838Z,31.95
2023-04-25T01:38:16.880Z,31.95
2023-04-25T01:39:16.963Z,31.97
2023-04-25T01:40:16.983Z,31.96
2023-04-25T01:41:17.008Z,31.96
2023-04-25T01:42:17.039Z,31.96
2023-04-25T01:43:17.088Z,31.99
2023-04-25T01:44:17.163Z,31.99
2023-04-25T01:45:17.208Z,31.98
2023-04-25T01:46:17.315Z,31.98
2023-04-25T01:47:17.292Z,31.96
2023-04-25T01:48:17.349Z,31.95
2023-04-25T01:49:17.405Z,31.98
2023-04-25T01:50:17.422Z,31.97
2023-04-25T01:51:17.479Z,31.97
2023-04-25T01:52:17.542Z,32.01
2023-04-25T01:53:17.567Z,31.99
2023-04-25T01:54:17.657Z,31.99
2023-04-25T01:55:17.667Z,32.02
2023-04-25T01:56:17.679Z,32.04
2023-04-25T01:57:18.272Z,32.02
2023-04-25T01:58:17.773Z,32.00
2023-04-25T01:59:17.858Z,32.03
2023-04-25T02:00:17.904Z,32.04
2023-04-25T02:01:17.923Z,32.07
2023-04-25T02:02:18.001Z,32.10
2023-04-25T02:03:18.092Z,32.06
2023-04-25T02:04:18.215Z,32.07
2023-04-25T02:05:17.980Z,32.03
2023-04-25T02:06:18.007Z,32.03
2023-04-25T02:07:18.034Z,32.04
2023-04-25T02:08:18.059Z,32.03
2023-04-25T02:09:18.070Z,32.05
2023-04-25T02:10:18.137Z,32.10
2023-04-25T02:11:18.206Z,32.07
2023-04-25T02:12:18.242Z,32.05
2023-04-25T02:13:18.286Z,32.07
2023-04-25T02:14:18.337Z,32.05
2023-04-25T02:15:18.402Z,32.06
2023-04-25T02:16:18.573Z,32.05
2023-04-25T02:17:18.597Z,32.09
2023-04-25T02:18:18.622Z,32.08
2023-04-25T02:19:18.654Z,32.05
2023-04-25T02:20:18.704Z,32.05
2023-04-25T02:21:18.757Z,32.07
2023-04-25T02:22:18.784Z,32.07
2023-04-25T02:23:18.858Z,32.07
2023-04-25T02:24:18.854Z,32.09
2023-04-25T02:25:18.846Z,32.09
2023-04-25T02:26:18.892Z,32.07
2023-04-25T02:27:18.901Z,32.10
2023-04-25T02:28:18.926Z,32.09
2023-04-25T02:29:18.989Z,32.09
2023-04-25T02:30:19.010Z,32.09
2023-04-25T02:31:19.099Z,32.08
2023-04-25T02:32:19.059Z,32.08
2023-04-25T02:33:19.064Z,32.08
2023-04-25T02:34:19.111Z,32.09
2023-04-25T02:35:19.067Z,32.08
2023-04-25T02:36:19.098Z,32.11
2023-04-25T02:37:19.121Z,32.10
2023-04-25T02:38:19.133Z,32.08
2023-04-25T02:39:19.151Z,32.10
2023-04-25T02:40:19.113Z,32.08
2023-04-25T02:41:19.142Z,32.10
2023-04-25T02:42:19.176Z,32.09
2023-04-25T02:43:19.199Z,32.08
2023-04-25T02:44:19.271Z,32.07
2023-04-25T02:45:19.283Z,32.06
2023-04-25T02:46:28.640Z,32.07
2023-04-25T02:47:20.371Z,32.09
2023-04-25T02:48:19.344Z,32.09
2023-04-25T02:49:19.287Z,32.09
2023-04-25T02:50:19.272Z,32.10
2023-04-25T02:51:19.271Z,32.10
2023-04-25T02:52:19.240Z,32.09
2023-04-25T02:53:19.256Z,32.09
2023-04-25T02:54:19.238Z,32.07
2023-04-25T02:55:19.282Z,32.10
2023-04-25T02:56:19.212Z,32.09
2023-04-25T02:57:19.261Z,32.10
2023-04-25T02:58:19.197Z,32.10
2023-04-25T02:59:19.209Z,32.11
2023-04-25T03:00:19.212Z,32.12
2023-04-25T03:01:19.288Z,32.12
2023-04-25T03:02:19.207Z,32.10
2023-04-25T03:03:19.336Z,32.10
2023-04-25T03:04:19.231Z,32.08
2023-04-25T03:05:19.199Z,32.08
2023-04-25T03:06:19.161Z,32.09
2023-04-25T03:07:19.176Z,32.10
2023-04-25T03:08:19.132Z,32.10
2023-04-25T03:09:19.153Z,32.09
2023-04-25T03:10:19.145Z,32.14
2023-04-25T03:11:19.141Z,32.14
2023-04-25T03:12:19.130Z,32.16
2023-04-25T03:13:19.141Z,32.14
2023-04-25T03:14:19.107Z,32.15
2023-04-25T03:15:19.095Z,32.18
2023-04-25T03:16:19.176Z,32.16
2023-04-25T03:17:19.093Z,32.17
2023-04-25T03:18:19.100Z,32.17
2023-04-25T03:19:19.076Z,32.20
2023-04-25T03:20:19.066Z,32.20
2023-04-25T03:21:19.041Z,32.21
2023-04-25T03:22:19.044Z,32.20
2023-04-25T03:23:19.051Z,32.20
2023-04-25T03:24:19.049Z,32.14
2023-04-25T03:25:19.065Z,32.16
2023-04-25T03:26:19.015Z,32.14
2023-04-25T03:27:19.049Z,32.14
2023-04-25T03:28:19.014Z,32.14
2023-04-25T03:29:19.001Z,32.16
2023-04-25T03:30:19.010Z,32.16
2023-04-25T03:31:19.010Z,32.17
2023-04-25T03:32:19.046Z,32.16
2023-04-25T03:33:18.999Z,32.13
2023-04-25T03:34:19.024Z,32.11
2023-04-25T03:35:18.976Z,32.08
2023-04-25T03:36:18.940Z,32.10
2023-04-25T03:37:18.953Z,32.09
2023-04-25T03:38:18.950Z,32.11
2023-04-25T03:39:18.946Z,32.12
2023-04-25T03:40:18.951Z,32.13
2023-04-25T03:41:18.910Z,32.11
2023-04-25T03:42:18.926Z,32.11
2023-04-25T03:43:18.940Z,32.11
2023-04-25T03:44:18.918Z,32.08
2023-04-25T03:45:18.936Z,32.10
2023-04-25T03:46:18.939Z,32.05
2023-04-25T03:47:18.895Z,32.06
2023-04-25T03:48:18.863Z,32.07
2023-04-25T03:49:19.584Z,32.06
2023-04-25T03:50:18.852Z,32.05
2023-04-25T03:51:18.874Z,32.06
2023-04-25T03:52:18.845Z,32.06
2023-04-25T03:53:18.877Z,32.06
2023-04-25T03:54:18.882Z,32.07
2023-04-25T03:55:18.855Z,32.03
2023-04-25T03:56:18.860Z,32.05
2023-04-25T03:57:18.862Z,32.06
2023-04-25T03:58:18.840Z,32.07
2023-04-25T03:59:18.853Z,32.07
2023-04-25T04:00:18.846Z,32.06
2023-04-25T04:01:18.862Z,32.09
2023-04-25T04:02:18.933Z,32.10
2023-04-25T04:03:19.037Z,32.11
2023-04-25T04:04:19.194Z,32.09
2023-04-25T04:05:18.963Z,32.07
2023-04-25T04:06:18.872Z,32.07
2023-04-25T04:07:18.875Z,32.08
2023-04-25T04:08:18.909Z,32.08
2023-04-25T04:09:18.946Z,32.08
2023-04-25T04:10:18.913Z,32.08
2023-04-25T04:11:18.897Z,32.09
2023-04-25T04:12:18.929Z,32.11
2023-04-25T04:13:18.934Z,32.08
2023-04-25T04:14:18.957Z,32.09
2023-04-25T04:15:18.951Z,32.08
2023-04-25T04:16:18.976Z,32.11
2023-04-25T04:17:18.934Z,32.08
2023-04-25T04:18:18.952Z,32.10
2023-04-25T04:19:18.953Z,32.11
2023-04-25T04:20:18.971Z,32.11
2023-04-25T04:21:18.952Z,32.12
2023-04-25T04:22:19.007Z,32.11
2023-04-25T04:23:18.991Z,32.11
2023-04-25T04:24:18.979Z,32.12
2023-04-25T04:25:18.983Z,32.11
2023-04-25T04:26:18.994Z,32.10
2023-04-25T04:27:18.997Z,32.12
2023-04-25T04:28:18.988Z,32.10
2023-04-25T04:29:19.037Z,32.10
2023-04-25T04:30:19.002Z,32.14
2023-04-25T04:31:19.135Z,32.13
2023-04-25T04:32:19.047Z,32.15
2023-04-25T04:33:19.028Z,32.15
2023-04-25T04:34:19.065Z,32.13
2023-04-25T04:35:19.053Z,32.13
2023-04-25T04:36:19.031Z,32.13
2023-04-25T04:37:19.040Z,32.13
2023-04-25T04:38:19.038Z,32.13
2023-04-25T04:39:19.087Z,32.15
2023-04-25T04:40:19.108Z,32.15
2023-04-25T04:41:19.087Z,32.16
2023-04-25T04:42:19.089Z,32.14
2023-04-25T04:43:19.120Z,32.16
2023-04-25T04:44:19.116Z,32.15
2023-04-25T04:45:19.142Z,32.12
2023-04-25T04:46:19.174Z,32.15
2023-04-25T04:47:19.149Z,32.14
2023-04-25T04:48:19.139Z,32.14
2023-04-25T04:49:19.152Z,32.15
2023-04-25T04:50:19.179Z,32.13
2023-04-25T04:51:19.166Z,32.13
2023-04-25T04:52:19.198Z,32.14
2023-04-25T04:53:19.171Z,32.15
2023-04-25T04:54:19.190Z,32.16
2023-04-25T04:55:19.169Z,32.16
2023-04-25T04:56:19.189Z,32.17
2023-04-25T04:57:19.213Z,32.14
2023-04-25T04:58:19.314Z,32.15
2023-04-25T04:59:19.209Z,32.16
2023-04-25T05:00:19.266Z,32.14
2023-04-25T05:01:19.327Z,32.17
2023-04-25T05:02:19.292Z,32.16
2023-04-25T05:03:19.353Z,32.16
2023-04-25T05:04:19.478Z,32.16
2023-04-25T05:05:19.360Z,32.15
2023-04-25T05:06:19.289Z,32.14
2023-04-25T05:07:19.297Z,32.13
2023-04-25T05:08:19.306Z,32.15
2023-04-25T05:09:19.331Z,32.13
2023-04-25T05:10:19.346Z,32.11
2023-04-25T05:11:20.337Z,32.14
2023-04-25T05:12:19.374Z,32.14
2023-04-25T05:13:19.358Z,32.17
2023-04-25T05:14:19.400Z,32.17
2023-04-25T05:15:19.389Z,32.18
2023-04-25T05:16:19.482Z,32.15
2023-04-25T05:17:19.413Z,32.18
2023-04-25T05:18:20.570Z,32.18
2023-04-25T05:19:19.478Z,32.17
2023-04-25T05:20:19.425Z,32.16
2023-04-25T05:21:19.434Z,32.18
2023-04-25T05:22:19.440Z,32.17
2023-04-25T05:23:19.456Z,32.16
2023-04-25T05:24:19.452Z,32.17
2023-04-25T05:25:19.494Z,32.19
2023-04-25T05:26:19.462Z,32.18
2023-04-25T05:27:19.455Z,32.18
2023-04-25T05:28:19.459Z,32.17
2023-04-25T05:29:19.484Z,32.16
2023-04-25T05:30:19.505Z,32.14
2023-04-25T05:31:19.515Z,32.16
2023-04-25T05:32:19.586Z,32.17
2023-04-25T05:33:19.509Z,32.19
2023-04-25T05:34:19.505Z,32.21
2023-04-25T05:35:19.904Z,32.18
2023-04-25T05:36:19.494Z,32.22
2023-04-25T05:37:19.517Z,32.35
2023-04-25T05:38:19.508Z,32.32
2023-04-25T05:39:19.508Z,32.36
2023-04-25T05:40:19.511Z,32.65
2023-04-25T05:41:19.519Z,32.46
2023-04-25T05:42:19.523Z,32.45
2023-04-25T05:43:19.526Z,32.42
2023-04-25T05:44:19.518Z,32.43
2023-04-25T05:45:19.913Z,33.11
2023-04-25T05:46:19.584Z,33.13
2023-04-25T05:47:19.526Z,33.21
2023-04-25T05:48:19.560Z,33.66
2023-04-25T05:49:19.829Z,33.94
2023-04-25T05:50:19.570Z,33.93
2023-04-25T05:51:19.598Z,34.13
2023-04-25T05:52:19.610Z,34.43
2023-04-25T05:53:19.644Z,34.40
2023-04-25T05:54:19.676Z,34.77
2023-04-25T05:55:19.661Z,34.71
2023-04-25T05:56:19.725Z,35.19
2023-04-25T05:57:19.779Z,35.13
2023-04-25T05:58:19.844Z,34.96
2023-04-25T05:59:19.861Z,35.06
2023-04-25T06:00:19.952Z,35.38
2023-04-25T06:01:20.106Z,35.29
2023-04-25T06:02:20.186Z,35.56
2023-04-25T06:03:20.949Z,35.32
2023-04-25T06:04:20.337Z,35.80
2023-04-25T06:05:20.421Z,35.65
2023-04-25T06:06:20.283Z,35.75
2023-04-25T06:07:20.340Z,35.84
2023-04-25T06:08:20.359Z,35.99
2023-04-25T06:09:20.396Z,35.99
2023-04-25T06:10:20.429Z,36.03
2023-04-25T06:11:20.466Z,36.13
2023-04-25T06:12:20.508Z,36.13
2023-04-25T06:13:20.534Z,36.12
2023-04-25T06:14:20.575Z,36.25
2023-04-25T06:16:20.585Z,36.36
2023-04-25T06:17:20.632Z,36.26
2023-04-25T06:18:20.581Z,36.34
2023-04-25T06:19:20.576Z,36.36
2023-04-25T06:20:20.560Z,36.39
2023-04-25T06:21:20.550Z,36.42
2023-04-25T06:22:20.558Z,36.52
2023-04-25T06:23:20.543Z,36.65
2023-04-25T06:24:20.521Z,36.70
2023-04-25T06:25:20.546Z,36.53
2023-04-25T06:26:20.563Z,35.06
2023-04-25T06:27:20.515Z,34.46
2023-04-25T06:28:20.499Z,35.40
2023-04-25T06:29:20.493Z,36.08
2023-04-25T06:30:20.492Z,36.38
2023-04-25T06:31:20.550Z,36.12
2023-04-25T06:32:20.466Z,35.55
2023-04-25T06:33:20.477Z,36.00
2023-04-25T06:34:20.497Z,36.05
2023-04-25T06:35:20.452Z,36.03
2023-04-25T06:36:20.471Z,36.36
2023-04-25T06:37:20.429Z,36.31
2023-04-25T06:38:20.428Z,36.49
2023-04-25T06:39:20.428Z,36.61
2023-04-25T06:40:20.421Z,36.66
2023-04-25T06:41:20.417Z,36.70
2023-04-25T06:42:20.392Z,36.80
2023-04-25T06:43:20.429Z,36.88
2023-04-25T06:44:20.404Z,37.03
2023-04-25T06:45:20.382Z,36.99
2023-04-25T06:46:20.412Z,37.17
2023-04-25T06:47:20.463Z,37.33
2023-04-25T06:48:20.367Z,37.49
2023-04-25T06:49:20.381Z,37.43
2023-04-25T06:50:20.386Z,37.36
2023-04-25T06:51:21.690Z,37.25
2023-04-25T06:52:20.461Z,37.22
2023-04-25T06:53:20.485Z,36.86
2023-04-25T06:54:20.511Z,36.01
2023-04-25T06:55:20.517Z,35.37
2023-04-25T06:56:20.571Z,34.22
2023-04-25T06:57:20.600Z,35.16
2023-04-25T06:58:20.601Z,34.98
2023-04-25T06:59:20.629Z,35.20
2023-04-25T07:00:20.662Z,36.39
2023-04-25T07:01:20.702Z,36.55
2023-04-25T07:02:20.835Z,36.71
2023-04-25T07:03:20.782Z,36.79
2023-04-25T07:04:21.052Z,36.88
2023-04-25T07:05:20.808Z,36.89
2023-04-25T07:06:20.823Z,36.92
2023-04-25T07:07:20.846Z,36.98
2023-04-25T07:08:20.858Z,37.08
2023-04-25T07:09:20.860Z,37.08
2023-04-25T07:10:20.913Z,37.15
2023-04-25T07:11:20.956Z,37.20
2023-04-25T07:12:20.929Z,37.27
2023-04-25T07:13:20.961Z,37.26
2023-04-25T07:14:20.978Z,37.27
2023-04-25T07:15:21.440Z,37.35
2023-04-25T07:16:21.043Z,37.34
2023-04-25T07:17:21.045Z,37.36
2023-04-25T07:18:21.042Z,37.46
2023-04-25T07:19:21.053Z,37.53
2023-04-25T07:20:21.094Z,37.53
2023-04-25T07:21:21.102Z,37.61
2023-04-25T07:22:21.126Z,37.61
2023-04-25T07:23:21.129Z,37.43
2023-04-25T07:24:21.122Z,37.18
2023-04-25T07:25:21.124Z,35.62
2023-04-25T07:26:21.170Z,35.46
2023-04-25T07:27:21.158Z,35.01
2023-04-25T07:28:21.213Z,36.37
2023-04-25T07:29:21.225Z,36.83
2023-04-25T07:30:21.241Z,36.99
2023-04-25T07:31:21.307Z,37.08
2023-04-25T07:32:21.457Z,37.06
2023-04-25T07:33:21.375Z,37.07
2023-04-25T07:34:21.378Z,37.11
2023-04-25T07:35:21.408Z,37.19
2023-04-25T07:36:21.394Z,37.20
2023-04-25T07:37:21.392Z,37.22
2023-04-25T07:38:21.375Z,37.28
2023-04-25T07:39:21.408Z,37.28
2023-04-25T07:40:21.421Z,37.36
2023-04-25T07:41:21.414Z,37.53
2023-04-25T07:42:21.375Z,37.82
2023-04-25T07:43:21.392Z,37.78
2023-04-25T07:44:21.377Z,37.80
2023-04-25T07:45:21.380Z,37.84
2023-04-25T07:46:21.482Z,38.82
2023-04-25T07:47:21.537Z,38.91
2023-04-25T07:48:21.451Z,39.32
2023-04-25T07:49:21.504Z,39.17
2023-04-25T07:50:21.582Z,39.47
2023-04-25T07:51:21.616Z,39.27
2023-04-25T07:52:21.698Z,39.03
2023-04-25T07:53:21.912Z,38.90
2023-04-25T07:54:21.814Z,38.69
2023-04-25T07:55:21.836Z,37.21
2023-04-25T07:56:21.942Z,37.15
2023-04-25T07:57:21.972Z,37.06
2023-04-25T07:58:22.058Z,36.75
2023-04-25T07:59:22.090Z,36.60
2023-04-25T08:00:22.155Z,37.66
2023-04-25T08:01:22.198Z,36.96
2023-04-25T08:02:22.229Z,37.30
2023-04-25T08:03:22.612Z,36.31
2023-04-25T08:04:22.387Z,36.68
2023-04-25T08:05:23.102Z,36.72
2023-04-25T08:06:22.614Z,35.77
2023-04-25T08:07:22.478Z,36.34
2023-04-25T08:08:22.480Z,36.54
2023-04-25T08:09:22.536Z,36.45
2023-04-25T08:10:22.703Z,36.66
2023-04-25T08:11:22.564Z,36.08
2023-04-25T08:12:23.531Z,34.54
2023-04-25T08:13:22.632Z,33.54
2023-04-25T08:14:22.618Z,32.53
2023-04-25T08:15:22.619Z,33.84
2023-04-25T08:16:23.079Z,34.15
2023-04-25T08:17:22.629Z,34.63
2023-04-25T08:18:22.723Z,35.18
2023-04-25T08:19:22.652Z,35.43
2023-04-25T08:20:22.696Z,35.76
2023-04-25T08:21:22.680Z,36.46
2023-04-25T08:22:22.695Z,36.43
2023-04-25T08:23:22.794Z,36.62
2023-04-25T08:24:22.814Z,36.54
2023-04-25T08:25:22.871Z,36.45
2023-04-25T08:26:22.982Z,36.51
2023-04-25T08:27:23.027Z,36.81
2023-04-25T08:28:23.071Z,35.92
2023-04-25T08:29:23.120Z,34.10
2023-04-25T08:30:23.186Z,33.49
2023-04-25T08:31:23.274Z,33.16
2023-04-25T08:32:23.235Z,33.16
2023-04-25T08:33:23.301Z,32.20
2023-04-25T08:34:23.248Z,32.11
2023-04-25T08:35:23.275Z,32.25
2023-04-25T08:36:37.593Z,32.67
2023-04-25T08:37:24.284Z,32.10
2023-04-25T08:38:23.276Z,31.81
2023-04-25T08:39:23.274Z,32.06
2023-04-25T08:40:23.249Z,31.81
2023-04-25T08:41:23.461Z,32.12
2023-04-25T08:42:23.246Z,31.69
2023-04-25T08:43:23.209Z,31.32
2023-04-25T08:44:23.256Z,31.15
2023-04-25T08:45:23.247Z,31.06
2023-04-25T08:46:23.254Z,31.28
2023-04-25T08:47:23.261Z,31.44
2023-04-25T08:48:23.166Z,31.42
2023-04-25T08:49:23.187Z,33.43
2023-04-25T08:50:23.201Z,33.25
2023-04-25T08:51:23.445Z,33.63
2023-04-25T08:52:23.217Z,33.47
2023-04-25T08:53:23.249Z,33.53
2023-04-25T08:54:34.098Z,33.97
2023-04-25T08:55:24.410Z,33.90
2023-04-25T08:56:23.254Z,33.21
2023-04-25T08:57:23.221Z,33.28
2023-04-25T08:58:23.215Z,33.65
2023-04-25T08:59:23.210Z,33.57
2023-04-25T09:00:23.203Z,33.64
2023-04-25T09:01:23.317Z,33.55
2023-04-25T09:02:23.306Z,33.21
2023-04-25T09:03:23.440Z,32.23
2023-04-25T09:04:23.220Z,32.70
2023-04-25T09:05:23.169Z,32.40
2023-04-25T09:06:23.457Z,32.79
2023-04-25T09:07:23.164Z,32.92
2023-04-25T09:08:23.175Z,32.96
2023-04-25T09:09:23.142Z,33.37
2023-04-25T09:10:23.174Z,33.41
2023-04-25T09:11:23.655Z,32.98
2023-04-25T09:12:23.146Z,33.52
2023-04-25T09:13:23.145Z,32.74
2023-04-25T09:14:23.139Z,32.48
2023-04-25T09:15:23.198Z,32.04
2023-04-25T09:16:23.320Z,32.62
2023-04-25T09:17:23.372Z,32.47
2023-04-25T09:18:29.919Z,32.42
2023-04-25T09:20:23.354Z,31.21
2023-04-25T09:21:23.369Z,32.16
2023-04-25T09:22:23.338Z,32.05
2023-04-25T09:23:23.339Z,32.81
2023-04-25T09:24:23.344Z,32.55
2023-04-25T09:25:23.358Z,31.89
2023-04-25T09:26:23.317Z,31.79
2023-04-25T09:27:23.332Z,32.18
2023-04-25T09:28:23.318Z,31.99
2023-04-25T09:29:23.353Z,32.26
2023-04-25T09:30:23.395Z,31.33
2023-04-25T09:31:23.472Z,31.16
2023-04-25T09:32:23.624Z,30.80
2023-04-25T09:33:23.436Z,30.88
2023-04-25T09:34:23.403Z,30.68
2023-04-25T09:35:23.366Z,30.94
2023-04-25T09:36:23.381Z,31.82
2023-04-25T09:37:23.385Z,31.39
2023-04-25T09:38:23.415Z,31.92
2023-04-25T09:39:23.400Z,31.90
2023-04-25T09:40:23.395Z,32.03
2023-04-25T09:41:23.481Z,31.88
2023-04-25T09:42:23.379Z,32.19
2023-04-25T09:43:23.400Z,32.38
2023-04-25T09:44:23.380Z,32.63
2023-04-25T09:45:23.362Z,33.02
2023-04-25T09:46:23.414Z,33.00
2023-04-25T09:47:23.413Z,32.39
2023-04-25T09:48:23.367Z,32.63
2023-04-25T09:49:23.368Z,31.99
2023-04-25T09:50:23.372Z,32.65
2023-04-25T09:51:23.393Z,32.90
2023-04-25T09:52:25.652Z,33.25
2023-04-25T09:53:23.360Z,33.02
2023-04-25T09:54:23.350Z,32.10
2023-04-25T09:55:23.366Z,31.40
2023-04-25T09:56:23.352Z,30.88
2023-04-25T09:57:23.485Z,30.83
2023-04-25T09:58:23.327Z,30.93
2023-04-25T09:59:23.328Z,30.89
2023-04-25T10:00:23.286Z,30.92
2023-04-25T10:01:23.337Z,30.78
2023-04-25T10:02:23.353Z,30.67
2023-04-25T10:03:23.550Z,30.62
2023-04-25T10:04:23.328Z,30.43
2023-04-25T10:05:23.277Z,30.21
2023-04-25T10:06:23.232Z,30.20
2023-04-25T10:07:23.501Z,30.18
2023-04-25T10:08:23.238Z,30.22
2023-04-25T10:09:23.251Z,30.14
2023-04-25T10:10:23.226Z,30.12
2023-04-25T10:11:23.230Z,30.69
2023-04-25T10:12:23.240Z,30.15
2023-04-25T10:13:23.200Z,30.32
2023-04-25T10:14:23.189Z,30.17
2023-04-25T10:15:23.329Z,30.01
2023-04-25T10:16:23.324Z,29.89
2023-04-25T10:17:23.167Z,29.93
2023-04-25T10:18:23.171Z,29.98
2023-04-25T10:19:23.155Z,29.97
2023-04-25T10:20:23.194Z,29.92
2023-04-25T10:21:23.172Z,29.97
2023-04-25T10:22:23.180Z,30.03
2023-04-25T10:23:23.151Z,29.95
2023-04-25T10:24:23.161Z,30.47
2023-04-25T10:25:23.134Z,30.44
2023-04-25T10:26:23.120Z,30.09
2023-04-25T10:27:23.164Z,29.88
2023-04-25T10:28:23.129Z,30.03
2023-04-25T10:29:23.132Z,29.87
2023-04-25T10:30:23.102Z,29.59
2023-04-25T10:31:23.225Z,29.58
2023-04-25T10:32:23.175Z,29.75
2023-04-25T10:33:23.066Z,29.74
2023-04-25T10:34:23.082Z,29.71
2023-04-25T10:35:23.061Z,30.06
2023-04-25T10:36:23.060Z,30.39
2023-04-25T10:37:23.471Z,31.13
2023-04-25T10:38:23.050Z,31.07
2023-04-25T10:39:23.049Z,31.52
2023-04-25T10:40:23.060Z,31.78
2023-04-25T10:41:23.044Z,31.97
2023-04-25T10:42:23.465Z,32.36
2023-04-25T10:43:23.012Z,32.41
2023-04-25T10:44:22.978Z,32.69
2023-04-25T10:45:22.986Z,33.01
2023-04-25T10:46:23.062Z,33.37
2023-04-25T10:47:23.008Z,33.44
2023-04-25T10:48:22.967Z,33.52
2023-04-25T10:49:22.976Z,33.82
2023-04-25T10:50:22.948Z,34.44
2023-04-25T10:51:22.952Z,34.18
2023-04-25T10:52:22.936Z,34.42
2023-04-25T10:53:22.974Z,34.33
2023-04-25T10:54:22.948Z,34.42
2023-04-25T10:55:23.026Z,34.49
2023-04-25T10:56:22.930Z,34.66
2023-04-25T10:57:22.966Z,34.89
2023-04-25T10:58:22.986Z,35.27
2023-04-25T10:59:23.027Z,35.29
2023-04-25T11:00:25.815Z,35.29
2023-04-25T11:01:24.111Z,35.40
2023-04-25T11:02:23.152Z,35.69
2023-04-25T11:03:23.332Z,35.55
2023-04-25T11:04:23.458Z,35.75
2023-04-25T11:05:23.059Z,35.77
2023-04-25T11:06:23.015Z,35.95
2023-04-25T11:07:23.035Z,36.02
2023-04-25T11:08:23.010Z,36.20
2023-04-25T11:09:22.975Z,36.42
2023-04-25T11:10:22.990Z,36.30
2023-04-25T11:11:22.993Z,36.39
2023-04-25T11:12:22.966Z,36.45
2023-04-25T11:13:22.949Z,36.51
2023-04-25T11:14:22.977Z,36.73
2023-04-25T11:15:22.954Z,36.91
2023-04-25T11:16:28.297Z,37.54
2023-04-25T11:17:24.053Z,37.25
2023-04-25T11:18:22.973Z,37.35
2023-04-25T11:19:22.926Z,37.46
2023-04-25T11:20:22.916Z,37.79
2023-04-25T11:21:22.959Z,37.97
2023-04-25T11:22:22.916Z,37.84
2023-04-25T11:23:22.912Z,37.86
2023-04-25T11:24:22.876Z,38.00
2023-04-25T11:25:22.875Z,38.24
2023-04-25T11:26:22.897Z,38.44
2023-04-25T11:27:22.993Z,38.43
2023-04-25T11:28:23.212Z,38.49
2023-04-25T11:29:23.053Z,38.80
2023-04-25T11:30:23.129Z,38.97
2023-04-25T11:31:23.224Z,38.78
2023-04-25T11:32:24.285Z,38.48
2023-04-25T11:33:23.389Z,38.47
2023-04-25T11:34:23.327Z,38.44
2023-04-25T11:35:23.355Z,38.47
2023-04-25T11:36:23.379Z,38.50
2023-04-25T11:37:23.574Z,38.56
2023-04-25T11:38:25.366Z,38.52
2023-04-25T11:39:23.417Z,38.58
2023-04-25T11:40:23.412Z,38.55
2023-04-25T11:41:23.580Z,38.63
2023-04-25T11:42:23.445Z,38.64
2023-04-25T11:43:23.395Z,38.70
2023-04-25T11:44:23.417Z,39.53
2023-04-25T11:45:23.368Z,38.60
2023-04-25T11:46:23.399Z,36.68
2023-04-25T11:47:23.398Z,35.19
2023-04-25T11:48:26.319Z,34.07
2023-04-25T11:49:23.389Z,33.64
2023-04-25T11:50:23.345Z,33.28
2023-04-25T11:51:23.340Z,32.89
2023-04-25T11:52:23.338Z,32.69
2023-04-25T11:53:23.302Z,32.65
2023-04-25T11:54:23.337Z,32.70
2023-04-25T11:55:23.296Z,32.89
2023-04-25T11:56:23.324Z,33.04
2023-04-25T11:57:23.292Z,33.12
2023-04-25T11:58:23.330Z,33.21
2023-04-25T11:59:23.313Z,33.21
2023-04-25T12:00:23.341Z,33.21
2023-04-25T12:01:23.271Z,33.32
2023-04-25T12:02:23.380Z,33.27
2023-04-25T12:03:23.503Z,33.35
2023-04-25T12:04:23.740Z,33.35
2023-04-25T12:06:25.687Z,33.35
2023-04-25T12:07:23.242Z,33.53
2023-04-25T12:08:23.220Z,33.72
2023-04-25T12:09:23.238Z,33.72
2023-04-25T12:10:23.244Z,33.63
2023-04-25T12:11:23.224Z,33.74
2023-04-25T12:12:23.207Z,33.82
2023-04-25T12:13:23.216Z,33.75
2023-04-25T12:14:23.203Z,33.54
2023-04-25T12:15:23.189Z,33.31
2023-04-25T12:16:23.275Z,33.51
2023-04-25T12:17:23.221Z,33.45
2023-04-25T12:18:23.160Z,33.42
2023-04-25T12:19:23.169Z,33.29
2023-04-25T12:20:23.177Z,33.11
2023-04-25T12:21:23.149Z,32.99
2023-04-25T12:22:23.540Z,32.94
2023-04-25T12:23:23.125Z,32.81
2023-04-25T12:24:23.130Z,32.65
2023-04-25T12:25:23.127Z,32.75
2023-04-25T12:26:23.124Z,32.76
2023-04-25T12:27:23.109Z,32.74
2023-04-25T12:28:23.119Z,32.78
2023-04-25T12:29:23.813Z,32.27
2023-04-25T12:30:23.094Z,32.10
2023-04-25T12:31:23.142Z,31.61
2023-04-25T12:32:23.093Z,31.59
2023-04-25T12:33:23.095Z,31.39
2023-04-25T12:34:23.138Z,31.33
2023-04-25T12:35:23.058Z,31.32
2023-04-25T12:36:23.050Z,31.14
2023-04-25T12:37:23.056Z,31.27
2023-04-25T12:38:23.046Z,31.53
2023-04-25T12:39:23.052Z,31.91
2023-04-25T12:40:23.027Z,32.35
2023-04-25T12:41:22.998Z,32.41
2023-04-25T12:42:23.017Z,32.45
2023-04-25T12:43:23.058Z,32.59
2023-04-25T12:44:23.005Z,32.75
2023-04-25T12:45:22.961Z,32.84
2023-04-25T12:46:23.038Z,32.90
2023-04-25T12:47:23.007Z,32.92
2023-04-25T12:48:23.016Z,32.97
2023-04-25T12:49:23.055Z,32.97
2023-04-25T12:50:23.079Z,32.97
2023-04-25T12:51:23.132Z,33.12
2023-04-25T12:52:23.165Z,33.34
2023-04-25T12:53:23.185Z,33.38
2023-04-25T12:54:23.247Z,33.67
2023-04-25T12:55:23.244Z,33.40